Pagrindinis puslapis
METAR-TAF:

METAR-TAF

Oro uostai :

Kišiniovas, Moldavija

platuma: 46-55-40N, ilguma: 028-55-51E, Aukštis: 122 m

Dabartinis oras

Ataskaita buvo paskelbta 14 minutes, ne 19:00 UTC
Vėjas 5 kt iš Pietvakarių
Temperatūra 16°C
Drėgmė 39%
Slėgis 1021 hPa
Matomumas 10 km arba daugiau
nėra debesų žemiau 1500 m ir nėra kamuolinių lietaus debesų

METAR: LUKK 151900Z 23005KT CAVOK 16/02 Q1021 R08/D NOSIG

Laikas: 22:14 (19:14 UTC)

Prognozė

Ataskaita buvo paskelbta 1 valandą ir 54 minutes, ne 17:20 UTC
Prognozė galioja nuo 15 metu 18 UTC su 16 metu 18 UTC
Vėjas 6 kt iš Pietų/Pietvakarių
Matomumas 10 km arba daugiau
nėra debesų žemiau 1500 m ir nėra kamuolinių lietaus debesų
Tapsmas
nuo 16 metu 05 UTC su 16 metu 07 UTC
Vėjas 8 kt iš Šiaurės/Šiaurės Vakarų

TAF: LUKK 151720Z 1518/1618 21006KT CAVOK BECMG 1605/1607 33008KT

Orai ataskaitas ir orų prognozės (METAR, TAF).

turimą stotys yra geltonos ir raudonos taškus žemėlapyje.

Perkelti pele per norėdami pamatyti stoties vardą.

Tada spustelėkite, norėdami matyti oro stebėjimo ir prognozės.

Norėdami pakeisti žemėlapį: spustelėkite ant žalios mygtukų su juodo kryžiaus žemyn,; žalią mygtuką su brūkšneliu, jei norite nutolinti; arba žalių rodyklių gretimoms žemėlapius.


METAR-TAF: